createdAt,value
2018-09-12T00:00:48.846Z,3.90
2018-09-12T00:03:17.393Z,4.40
2018-09-12T00:05:45.929Z,4.50
2018-09-12T00:08:14.672Z,4.03
2018-09-12T00:10:43.379Z,3.80
2018-09-12T00:13:11.922Z,4.23
2018-09-12T00:15:40.586Z,4.47
2018-09-12T00:18:09.203Z,4.33
2018-09-12T00:20:37.894Z,4.73
2018-09-12T00:23:06.529Z,4.40
2018-09-12T00:25:35.389Z,4.33
2018-09-12T00:28:04.065Z,3.60
2018-09-12T00:30:32.566Z,3.90
2018-09-12T00:33:01.401Z,3.70
2018-09-12T00:35:29.956Z,3.60
2018-09-12T00:37:58.466Z,3.73
2018-09-12T00:40:27.248Z,4.07
2018-09-12T00:42:55.938Z,4.00
2018-09-12T00:48:00.308Z,3.90
2018-09-12T00:50:29.006Z,4.53
2018-09-12T00:52:57.536Z,3.70
2018-09-12T00:55:26.058Z,4.20
2018-09-12T00:57:54.640Z,4.10
2018-09-12T01:00:23.575Z,3.90
2018-09-12T01:02:52.202Z,4.47
2018-09-12T01:05:20.772Z,3.80
2018-09-12T01:07:49.681Z,4.23
2018-09-12T01:10:18.263Z,4.13
2018-09-12T01:12:47.227Z,4.20
2018-09-12T01:15:16.582Z,4.23
2018-09-12T01:17:45.247Z,4.20
2018-09-12T01:20:13.732Z,4.17
2018-09-12T01:22:42.298Z,4.00
2018-09-12T01:25:11.256Z,3.77
2018-09-12T01:27:39.814Z,4.00
2018-09-12T01:30:09.815Z,3.77
2018-09-12T01:32:38.605Z,3.80
2018-09-12T01:35:07.330Z,4.50
2018-09-12T01:37:35.852Z,4.03
2018-09-12T01:40:04.569Z,3.83
2018-09-12T01:42:33.091Z,4.03
2018-09-12T01:45:01.640Z,4.13
2018-09-12T01:47:30.371Z,4.13
2018-09-12T01:49:58.916Z,4.13
2018-09-12T01:52:27.498Z,4.00
2018-09-12T01:54:56.008Z,4.40
2018-09-12T01:57:24.588Z,4.00
2018-09-12T01:59:53.228Z,4.43
2018-09-12T02:02:21.831Z,4.17
2018-09-12T02:04:50.438Z,4.03
2018-09-12T02:07:19.190Z,4.30
2018-09-12T02:09:47.983Z,4.00
2018-09-12T02:12:16.579Z,4.10
2018-09-12T02:14:45.414Z,4.20
2018-09-12T02:17:14.138Z,4.03
2018-09-12T02:19:43.046Z,4.33
2018-09-12T02:22:11.574Z,3.97
2018-09-12T02:24:40.503Z,4.37
2018-09-12T02:27:09.053Z,4.03
2018-09-12T02:29:37.633Z,4.70
2018-09-12T02:32:06.286Z,4.10
2018-09-12T02:34:34.973Z,4.00
2018-09-12T02:37:03.543Z,4.30
2018-09-12T02:39:32.263Z,4.67
2018-09-12T02:42:01.067Z,4.00
2018-09-12T02:44:32.990Z,4.60
2018-09-12T02:47:01.530Z,4.70
2018-09-12T02:49:30.053Z,5.00
2018-09-12T02:51:59.327Z,5.00
2018-09-12T02:54:28.037Z,4.90
2018-09-12T02:56:56.918Z,5.20
2018-09-12T02:59:25.577Z,5.30
2018-09-12T03:01:54.216Z,4.77
2018-09-12T03:04:22.881Z,4.40
2018-09-12T03:06:51.422Z,4.43
2018-09-12T03:09:19.958Z,4.30
2018-09-12T03:11:49.144Z,4.80
2018-09-12T03:14:17.993Z,4.40
2018-09-12T03:16:46.611Z,4.77
2018-09-12T03:19:15.256Z,4.90
2018-09-12T03:21:43.859Z,4.90
2018-09-12T03:24:12.629Z,4.97
2018-09-12T03:26:41.771Z,4.70
2018-09-12T03:29:10.500Z,4.23
2018-09-12T03:31:39.073Z,5.00
2018-09-12T03:34:08.135Z,4.73
2018-09-12T03:36:37.103Z,5.07
2018-09-12T03:39:08.981Z,4.60
2018-09-12T03:41:37.841Z,5.23
2018-09-12T03:44:06.723Z,5.20
2018-09-12T03:46:35.414Z,4.70
2018-09-12T03:49:04.358Z,4.63
2018-09-12T03:51:32.880Z,4.80
2018-09-12T03:54:01.582Z,4.70
2018-09-12T03:56:30.197Z,4.93
2018-09-12T03:58:58.883Z,4.80
2018-09-12T04:01:27.741Z,5.20
2018-09-12T04:03:56.303Z,5.00
2018-09-12T04:06:24.978Z,4.73
2018-09-12T04:08:53.611Z,5.07
2018-09-12T04:11:22.173Z,4.30
2018-09-12T04:13:51.156Z,4.50
2018-09-12T04:16:19.994Z,4.70
2018-09-12T04:18:48.748Z,5.10
2018-09-12T04:21:17.668Z,5.00
2018-09-12T04:23:46.669Z,5.30
2018-09-12T04:26:15.513Z,5.70
2018-09-12T04:28:44.672Z,5.00
2018-09-12T04:31:13.254Z,5.00
2018-09-12T04:33:41.779Z,5.57
2018-09-12T04:36:10.337Z,5.00
2018-09-12T04:38:38.925Z,4.70
2018-09-12T04:41:07.585Z,5.40
2018-09-12T04:43:36.343Z,4.73
2018-09-12T04:46:05.287Z,5.10
2018-09-12T04:48:34.217Z,4.40
2018-09-12T04:51:02.695Z,4.83
2018-09-12T04:53:31.388Z,4.70
2018-09-12T04:55:59.938Z,4.60
2018-09-12T04:58:28.489Z,4.83
2018-09-12T05:00:57.052Z,5.20
2018-09-12T05:03:25.678Z,4.90
2018-09-12T05:05:54.229Z,4.70
2018-09-12T05:08:22.742Z,5.17
2018-09-12T05:10:51.345Z,5.07
2018-09-12T05:13:19.959Z,4.40
2018-09-12T05:15:48.739Z,5.50
2018-09-12T05:18:17.438Z,4.80
2018-09-12T05:20:46.426Z,4.70
2018-09-12T05:23:15.070Z,4.93
2018-09-12T05:25:43.870Z,5.43
2018-09-12T05:28:12.584Z,4.77
2018-09-12T05:30:41.159Z,4.83
2018-09-12T05:33:09.811Z,5.57
2018-09-12T05:35:38.665Z,5.17
2018-09-12T05:38:07.235Z,5.87
2018-09-12T05:40:35.756Z,5.80
2018-09-12T05:43:04.496Z,5.33
2018-09-12T05:45:33.632Z,5.70
2018-09-12T05:48:02.245Z,5.27
2018-09-12T05:50:30.960Z,6.00
2018-09-12T05:52:59.896Z,5.43
2018-09-12T05:55:28.454Z,5.43
2018-09-12T05:57:56.969Z,5.47
2018-09-12T06:00:25.570Z,4.73
2018-09-12T06:02:54.166Z,5.50
2018-09-12T06:05:22.775Z,5.33
2018-09-12T06:07:51.726Z,5.30
2018-09-12T06:10:20.462Z,5.20
2018-09-12T06:12:49.304Z,5.67
2018-09-12T06:15:18.704Z,5.33
2018-09-12T06:17:47.275Z,5.37
2018-09-12T06:20:16.068Z,6.20
2018-09-12T06:22:44.939Z,5.60
2018-09-12T06:25:13.886Z,5.60
2018-09-12T06:27:42.426Z,5.33
2018-09-12T06:30:11.638Z,5.40
2018-09-12T06:32:40.171Z,5.53
2018-09-12T06:35:09.344Z,5.30
2018-09-12T06:37:38.000Z,5.80
2018-09-12T06:40:06.954Z,6.40
2018-09-12T06:42:35.520Z,5.90
2018-09-12T06:45:04.269Z,4.87
2018-09-12T06:47:33.391Z,5.90
2018-09-12T06:50:02.217Z,5.43
2018-09-12T06:52:30.851Z,5.67
2018-09-12T06:55:00.047Z,5.87
2018-09-12T06:57:28.672Z,5.37
2018-09-12T06:59:57.234Z,5.37
2018-09-12T07:02:26.119Z,5.13
2018-09-12T07:04:55.026Z,5.50
2018-09-12T07:07:23.735Z,5.53
2018-09-12T07:09:52.715Z,5.00
2018-09-12T07:12:21.443Z,5.27
2018-09-12T07:14:50.325Z,5.20
2018-09-12T07:17:19.250Z,6.30
2018-09-12T07:19:48.130Z,5.43
2018-09-12T07:22:17.014Z,5.43
2018-09-12T07:24:45.933Z,5.37
2018-09-12T07:27:14.685Z,5.70
2018-09-12T07:29:43.703Z,5.17
2018-09-12T07:32:12.901Z,5.47
2018-09-12T07:34:41.969Z,5.30
2018-09-12T07:37:11.007Z,5.20
2018-09-12T07:39:39.747Z,5.17
2018-09-12T07:42:08.360Z,5.67
2018-09-12T07:44:37.235Z,5.50
2018-09-12T07:47:06.494Z,4.97
2018-09-12T07:49:35.279Z,5.03
2018-09-12T07:52:03.927Z,5.33
2018-09-12T07:54:32.669Z,5.07
2018-09-12T07:57:01.567Z,4.90
2018-09-12T07:59:30.466Z,4.03
2018-09-12T08:01:59.368Z,5.27
2018-09-12T08:04:28.326Z,4.53
2018-09-12T08:06:57.224Z,4.57
2018-09-12T08:09:26.130Z,5.07
2018-09-12T08:11:55.419Z,4.70
2018-09-12T08:14:24.367Z,4.40
2018-09-12T08:16:53.685Z,3.97
2018-09-12T08:19:22.543Z,3.67
2018-09-12T08:21:51.557Z,4.60
2018-09-12T08:24:20.517Z,4.00
2018-09-12T08:26:49.522Z,4.53
2018-09-12T08:29:18.479Z,4.20
2018-09-12T08:31:47.587Z,4.13
2018-09-12T08:34:16.398Z,4.40
2018-09-12T08:36:45.402Z,3.67
2018-09-12T08:39:14.695Z,3.90
2018-09-12T08:41:43.424Z,4.03
2018-09-12T08:44:12.410Z,3.73
2018-09-12T08:46:41.013Z,4.77
2018-09-12T08:49:10.215Z,4.33
2018-09-12T08:51:39.335Z,4.03
2018-09-12T08:54:08.441Z,4.50
2018-09-12T08:56:37.596Z,4.63
2018-09-12T08:59:06.779Z,4.10
2018-09-12T09:01:35.738Z,4.23
2018-09-12T09:04:04.611Z,4.83
2018-09-12T09:06:33.198Z,3.90
2018-09-12T09:09:02.167Z,4.47
2018-09-12T09:11:30.938Z,4.60
2018-09-12T09:13:59.541Z,4.23
2018-09-12T09:16:28.583Z,4.20
2018-09-12T09:18:57.519Z,3.60
2018-09-12T09:21:26.566Z,3.20
2018-09-12T09:23:55.715Z,3.20
2018-09-12T09:26:24.568Z,2.98
2018-09-12T09:28:53.946Z,3.17
2018-09-12T09:31:22.624Z,3.20
2018-09-12T09:33:51.413Z,3.12
2018-09-12T09:36:20.921Z,3.00
2018-09-12T09:38:49.615Z,3.00
2018-09-12T09:41:18.399Z,3.75
2018-09-12T09:43:47.495Z,3.00
2018-09-12T09:46:16.573Z,2.60
2018-09-12T09:48:46.015Z,2.98
2018-09-12T09:51:15.361Z,3.10
2018-09-12T09:53:44.583Z,2.50
2018-09-12T09:56:13.768Z,2.65
2018-09-12T09:58:42.744Z,2.40
2018-09-12T10:01:17.023Z,2.42
2018-09-12T10:03:51.413Z,2.50
2018-09-12T10:06:24.486Z,2.47
2018-09-12T10:08:56.206Z,2.12
2018-09-12T10:11:25.141Z,2.37
2018-09-12T10:13:53.950Z,2.10
2018-09-12T10:16:23.221Z,2.42
2018-09-12T10:18:52.008Z,2.55
2018-09-12T10:21:20.727Z,2.30
2018-09-12T10:23:49.486Z,2.17
2018-09-12T10:26:18.577Z,2.00
2018-09-12T10:28:47.508Z,1.95
2018-09-12T10:31:16.171Z,2.17
2018-09-12T10:33:45.217Z,1.70
2018-09-12T10:36:14.074Z,1.87
2018-09-12T10:38:42.823Z,1.62
2018-09-12T10:41:11.570Z,1.60
2018-09-12T10:43:40.385Z,1.77
2018-09-12T10:46:09.198Z,1.47
2018-09-12T10:48:37.880Z,1.55
2018-09-12T10:51:07.280Z,1.70
2018-09-12T10:53:35.936Z,1.80
2018-09-12T10:56:04.804Z,1.60
2018-09-12T10:58:34.195Z,1.45
2018-09-12T11:01:03.226Z,1.92
2018-09-12T11:03:32.325Z,1.70
2018-09-12T11:06:01.153Z,1.72
2018-09-12T11:08:30.066Z,1.75
2018-09-12T11:10:58.747Z,1.55
2018-09-12T11:13:27.602Z,1.90
2018-09-12T11:15:56.670Z,1.67
2018-09-12T11:18:25.435Z,1.57
2018-09-12T11:20:54.089Z,1.47
2018-09-12T11:23:22.947Z,1.70
2018-09-12T11:25:51.825Z,1.85
2018-09-12T11:28:20.590Z,1.80
2018-09-12T11:30:49.596Z,1.92
2018-09-12T11:33:18.671Z,1.92
2018-09-12T11:35:48.020Z,2.15
2018-09-12T11:38:17.007Z,1.82
2018-09-12T11:40:46.083Z,2.10
2018-09-12T11:43:14.995Z,2.47
2018-09-12T11:45:43.510Z,2.05
2018-09-12T11:48:12.432Z,2.00
2018-09-12T11:50:41.694Z,2.12
2018-09-12T11:53:10.253Z,2.45
2018-09-12T11:55:39.336Z,2.60
2018-09-12T11:58:08.427Z,2.20
2018-09-12T12:00:37.387Z,2.27
2018-09-12T12:03:06.274Z,2.10
2018-09-12T12:05:35.324Z,2.58
2018-09-12T12:08:04.319Z,2.05
2018-09-12T12:10:33.527Z,2.22
2018-09-12T12:13:02.260Z,2.15
2018-09-12T12:15:31.094Z,2.60
2018-09-12T12:18:00.586Z,2.40
2018-09-12T12:20:29.592Z,2.00
2018-09-12T12:22:58.418Z,1.98
2018-09-12T12:25:27.343Z,2.60
2018-09-12T12:27:56.123Z,2.40
2018-09-12T12:30:25.294Z,2.45
2018-09-12T12:32:54.116Z,2.30
2018-09-12T12:35:23.190Z,2.33
2018-09-12T12:37:52.634Z,2.37
2018-09-12T12:40:21.513Z,1.90
2018-09-12T12:42:50.411Z,2.10
2018-09-12T12:45:19.361Z,2.40
2018-09-12T12:47:48.337Z,2.00
2018-09-12T12:50:17.175Z,2.30
2018-09-12T12:52:46.713Z,2.42
2018-09-12T12:55:15.798Z,2.27
2018-09-12T12:57:44.758Z,2.47
2018-09-12T13:00:13.666Z,2.22
2018-09-12T13:02:42.758Z,2.42
2018-09-12T13:05:12.056Z,2.10
2018-09-12T13:07:41.454Z,2.90
2018-09-12T13:10:10.624Z,2.30
2018-09-12T13:12:39.728Z,2.60
2018-09-12T13:15:08.935Z,2.37
2018-09-12T13:17:37.719Z,2.20
2018-09-12T13:20:07.396Z,2.35
2018-09-12T13:22:36.529Z,2.27
2018-09-12T13:25:05.675Z,2.42
2018-09-12T13:27:34.716Z,2.80
2018-09-12T13:30:03.636Z,2.60
2018-09-12T13:32:32.877Z,2.52
2018-09-12T13:35:01.786Z,2.40
2018-09-12T13:37:30.712Z,2.45
2018-09-12T13:39:59.596Z,2.60
2018-09-12T13:42:28.310Z,2.80
2018-09-12T13:44:57.267Z,2.52
2018-09-12T13:47:26.280Z,2.52
2018-09-12T13:49:55.477Z,2.40
2018-09-12T13:52:24.722Z,2.40
2018-09-12T13:54:53.618Z,2.37
2018-09-12T13:57:22.672Z,2.20
2018-09-12T13:59:51.591Z,2.55
2018-09-12T14:02:20.385Z,2.33
2018-09-12T14:04:49.704Z,2.35
2018-09-12T14:07:18.503Z,2.60
2018-09-12T14:09:47.463Z,2.70
2018-09-12T14:12:16.343Z,2.60
2018-09-12T14:14:45.184Z,2.60
2018-09-12T14:17:14.138Z,2.27
2018-09-12T14:19:43.278Z,3.75
2018-09-12T14:22:12.555Z,5.33
2018-09-12T14:24:41.798Z,6.12
2018-09-12T14:27:10.454Z,8.40
2018-09-12T14:29:39.469Z,7.20
2018-09-12T14:32:08.597Z,7.35
2018-09-12T14:34:37.730Z,8.00
2018-09-12T14:37:06.665Z,7.83
2018-09-12T14:39:35.676Z,8.78
2018-09-12T14:42:04.377Z,8.23
2018-09-12T14:44:33.261Z,8.13
2018-09-12T14:47:02.228Z,7.03
2018-09-12T14:49:31.195Z,8.43
2018-09-12T14:52:00.253Z,9.58
2018-09-12T14:54:29.328Z,9.43
2018-09-12T14:56:58.204Z,11.60
2018-09-12T14:59:26.858Z,11.22
2018-09-12T15:01:55.812Z,12.40
2018-09-12T15:04:24.676Z,17.05
2018-09-12T15:06:53.573Z,15.75
2018-09-12T15:09:22.262Z,13.70
2018-09-12T15:11:51.216Z,11.75
2018-09-12T15:14:20.166Z,9.75
2018-09-12T15:16:49.395Z,8.00
2018-09-12T15:19:18.620Z,8.95
2018-09-12T15:21:47.803Z,8.40
2018-09-12T15:24:16.654Z,9.93
2018-09-12T15:26:45.608Z,8.38
2018-09-12T15:29:14.501Z,8.40
2018-09-12T15:31:44.070Z,8.58
2018-09-12T15:34:13.110Z,9.23
2018-09-12T15:36:42.097Z,10.48
2018-09-12T15:39:12.066Z,9.30
2018-09-12T15:41:41.535Z,11.08
2018-09-12T15:44:10.476Z,10.78
2018-09-12T15:46:39.311Z,11.35
2018-09-12T15:49:08.063Z,11.88
2018-09-12T15:51:36.998Z,12.07
2018-09-12T15:54:05.906Z,11.63
2018-09-12T15:56:35.023Z,12.20
2018-09-12T15:59:04.102Z,13.27
2018-09-12T16:01:33.077Z,13.50
2018-09-12T16:04:02.156Z,16.10
2018-09-12T16:06:30.945Z,15.03
2018-09-12T16:08:59.640Z,13.97
2018-09-12T16:11:28.485Z,13.87
2018-09-12T16:13:57.222Z,15.03
2018-09-12T16:16:25.988Z,13.03
2018-09-12T16:18:55.065Z,13.03
2018-09-12T16:21:23.699Z,13.63
2018-09-12T16:23:52.333Z,13.70
2018-09-12T16:26:21.377Z,15.03
2018-09-12T16:28:50.267Z,13.70
2018-09-12T16:31:19.206Z,13.30
2018-09-12T16:33:48.211Z,13.03
2018-09-12T16:36:17.280Z,14.40
2018-09-12T16:38:46.477Z,14.57
2018-09-12T16:41:15.367Z,14.73
2018-09-12T16:43:44.334Z,13.07
2018-09-12T16:46:13.647Z,12.07
2018-09-12T16:48:42.625Z,10.50
2018-09-12T16:51:11.399Z,9.83
2018-09-12T16:53:40.413Z,8.30
2018-09-12T16:56:09.696Z,9.87
2018-09-12T16:58:38.625Z,8.70
2018-09-12T17:01:07.956Z,9.67
2018-09-12T17:03:37.124Z,10.27
2018-09-12T17:06:06.404Z,10.83
2018-09-12T17:08:35.819Z,8.80
2018-09-12T17:11:05.006Z,9.27
2018-09-12T17:13:34.271Z,9.93
2018-09-12T17:16:03.451Z,8.87
2018-09-12T17:18:32.203Z,8.80
2018-09-12T17:21:01.878Z,8.43
2018-09-12T17:23:30.708Z,8.50
2018-09-12T17:25:59.639Z,9.57
2018-09-12T17:28:28.781Z,9.50
2018-09-12T17:30:57.835Z,11.03
2018-09-12T17:33:27.993Z,10.87
2018-09-12T17:35:57.308Z,11.23
2018-09-12T17:38:26.387Z,12.00
2018-09-12T17:40:55.496Z,12.20
2018-09-12T17:43:24.442Z,12.43
2018-09-12T17:45:53.438Z,12.17
2018-09-12T17:48:22.176Z,11.23
2018-09-12T17:50:51.489Z,11.43
2018-09-12T17:53:20.368Z,11.77
2018-09-12T17:55:49.242Z,12.77
2018-09-12T17:58:18.197Z,12.80
2018-09-12T18:00:48.001Z,14.50
2018-09-12T18:03:17.473Z,13.30
2018-09-12T18:05:46.902Z,12.50
2018-09-12T18:08:15.803Z,12.43
2018-09-12T18:10:44.832Z,13.10
2018-09-12T18:13:13.426Z,13.17
2018-09-12T18:15:42.660Z,13.67
2018-09-12T18:18:11.500Z,13.97
2018-09-12T18:20:40.617Z,13.17
2018-09-12T18:23:09.531Z,12.93
2018-09-12T18:25:38.633Z,11.60
2018-09-12T18:28:07.668Z,11.03
2018-09-12T18:30:37.350Z,10.90
2018-09-12T18:33:06.244Z,11.33
2018-09-12T18:35:35.428Z,10.10
2018-09-12T18:38:04.743Z,9.47
2018-09-12T18:40:33.972Z,9.13
2018-09-12T18:43:03.127Z,9.53
2018-09-12T18:45:32.224Z,9.67
2018-09-12T18:48:01.257Z,9.63
2018-09-12T18:50:29.900Z,9.57
2018-09-12T18:52:59.042Z,9.23
2018-09-12T18:55:27.829Z,9.23
2018-09-12T18:57:56.935Z,10.00
2018-09-12T19:00:25.623Z,9.87
2018-09-12T19:02:54.414Z,9.90
2018-09-12T19:05:23.296Z,11.13
2018-09-12T19:07:52.242Z,10.37
2018-09-12T19:10:21.239Z,10.50
2018-09-12T19:12:50.076Z,9.67
2018-09-12T19:15:19.138Z,10.13
2018-09-12T19:17:48.084Z,8.77
2018-09-12T19:20:17.190Z,11.57
2018-09-12T19:22:46.308Z,9.70
2018-09-12T19:25:15.025Z,9.43
2018-09-12T19:27:44.011Z,9.30
2018-09-12T19:30:12.986Z,9.53
2018-09-12T19:32:41.835Z,9.23
2018-09-12T19:35:10.775Z,8.13
2018-09-12T19:37:40.089Z,7.10
2018-09-12T19:40:09.248Z,6.30
2018-09-12T19:42:38.688Z,6.23
2018-09-12T19:45:07.465Z,8.17
2018-09-12T19:47:36.586Z,7.47
2018-09-12T19:50:05.877Z,6.53
2018-09-12T19:52:34.637Z,5.90
2018-09-12T19:55:03.869Z,6.20
2018-09-12T19:57:33.024Z,6.67
2018-09-12T20:00:01.899Z,6.57
2018-09-12T20:02:33.297Z,5.93
2018-09-12T20:05:02.200Z,5.33
2018-09-12T20:07:32.255Z,4.87
2018-09-12T20:10:01.017Z,3.67
2018-09-12T20:12:29.982Z,2.90
2018-09-12T20:14:59.331Z,2.30
2018-09-12T20:17:28.187Z,2.93
2018-09-12T20:19:57.059Z,4.07
2018-09-12T20:22:26.023Z,3.20
2018-09-12T20:24:55.314Z,3.10
2018-09-12T20:27:24.246Z,2.53
2018-09-12T20:29:53.070Z,2.70
2018-09-12T20:32:21.865Z,2.90
2018-09-12T20:34:50.503Z,3.00
2018-09-12T20:37:19.398Z,3.10
2018-09-12T20:39:48.207Z,3.57
2018-09-12T20:42:17.013Z,4.00
2018-09-12T20:44:45.856Z,3.90
2018-09-12T20:47:14.557Z,3.53
2018-09-12T20:49:43.152Z,3.50
2018-09-12T20:52:11.792Z,3.37
2018-09-12T20:54:40.329Z,3.00
2018-09-12T20:57:09.184Z,3.37
2018-09-12T20:59:37.890Z,3.13
2018-09-12T21:02:06.804Z,3.67
2018-09-12T21:04:35.497Z,4.10
2018-09-12T21:07:04.339Z,4.33
2018-09-12T21:09:33.432Z,4.73
2018-09-12T21:12:02.162Z,5.43
2018-09-12T21:14:30.838Z,5.77
2018-09-12T21:16:59.804Z,5.93
2018-09-12T21:19:28.772Z,5.50
2018-09-12T21:21:57.309Z,5.50
2018-09-12T21:24:25.950Z,6.17
2018-09-12T21:26:54.903Z,6.23
2018-09-12T21:29:23.845Z,5.97
2018-09-12T21:31:52.432Z,6.13
2018-09-12T21:34:21.289Z,5.53
2018-09-12T21:36:49.882Z,6.17
2018-09-12T21:39:18.472Z,6.60
2018-09-12T21:41:47.414Z,6.40
2018-09-12T21:44:16.385Z,7.27
2018-09-12T21:46:45.158Z,6.53
2018-09-12T21:49:13.718Z,6.93
2018-09-12T21:51:42.286Z,7.80
2018-09-12T21:54:11.369Z,8.00
2018-09-12T21:56:41.842Z,8.00
2018-09-12T21:59:10.343Z,7.50
2018-09-12T22:01:38.871Z,7.63
2018-09-12T22:04:07.691Z,8.50
2018-09-12T22:06:36.443Z,7.80
2018-09-12T22:09:08.477Z,8.93
2018-09-12T22:11:37.049Z,8.90
2018-09-12T22:14:05.975Z,9.20
2018-09-12T22:16:34.662Z,9.50
2018-09-12T22:19:03.433Z,9.20
2018-09-12T22:21:32.046Z,9.43
2018-09-12T22:24:00.724Z,9.33
2018-09-12T22:26:29.547Z,9.03
2018-09-12T22:28:58.140Z,9.20
2018-09-12T22:31:26.923Z,9.70
2018-09-12T22:33:55.748Z,9.93
2018-09-12T22:36:24.355Z,9.37
2018-09-12T22:38:53.592Z,9.93
2018-09-12T22:41:22.276Z,10.43
2018-09-12T22:43:51.064Z,11.87
2018-09-12T22:46:19.947Z,11.23
2018-09-12T22:48:48.487Z,11.20
2018-09-12T22:51:17.409Z,11.43
2018-09-12T22:53:45.979Z,11.03
2018-09-12T22:56:14.530Z,11.43
2018-09-12T22:58:43.123Z,11.97
2018-09-12T23:01:11.699Z,12.40
2018-09-12T23:03:40.412Z,12.77
2018-09-12T23:06:09.212Z,12.20
2018-09-12T23:08:37.836Z,11.83
2018-09-12T23:11:06.809Z,13.67
2018-09-12T23:13:35.446Z,13.70
2018-09-12T23:16:04.078Z,14.10
2018-09-12T23:18:32.925Z,13.73
2018-09-12T23:21:01.761Z,13.93
2018-09-12T23:23:30.417Z,13.67
2018-09-12T23:25:59.113Z,13.70
2018-09-12T23:28:27.655Z,13.43
2018-09-12T23:30:56.461Z,14.60
2018-09-12T23:33:25.325Z,14.07
2018-09-12T23:35:53.949Z,13.57
2018-09-12T23:38:22.598Z,13.77
2018-09-12T23:40:51.485Z,12.90
2018-09-12T23:43:20.024Z,13.23
2018-09-12T23:45:48.640Z,13.57
2018-09-12T23:48:17.237Z,13.23
2018-09-12T23:50:45.828Z,12.63
2018-09-12T23:53:14.669Z,13.07
2018-09-12T23:55:43.540Z,13.70
2018-09-12T23:58:12.211Z,13.67
